Time;durP1;ratioP1;P1;durP2;ratioP2;P2;SDS_P1;SDS_P2;PMS_P1;PMS_P2;Temp;Humidity;BMP_temperature;BMP_pressure;BME280_temperature;BME280_humidity;BME280_pressure;Samples;Min_cycle;Max_cycle;Signal;HPM_P1;HPM_P2
2021/01/07 00:00:47;;;;;;;12.48;7.30;;;0.70;99.90;;;;;;12966968;22;20029;-94
2021/01/07 00:05:49;;;;;;;13.98;7.18;;;0.60;99.90;;;;;;12938935;22;20016;-93
2021/01/07 00:10:52;;;;;;;12.95;7.72;;;0.60;99.90;;;;;;12914475;22;20471;-93
2021/01/07 00:15:54;;;;;;;10.63;6.68;;;0.60;99.90;;;;;;12939575;22;20468;-93
2021/01/07 00:20:55;;;;;;;11.50;6.45;;;0.60;99.90;;;;;;12963835;22;20023;-94
2021/01/07 00:25:57;;;;;;;;;;;0.60;99.90;;;;;;12964457;22;20020;-94
2021/01/07 00:30:58;;;;;;;10.75;6.60;;;0.60;99.90;;;;;;12988864;22;19919;-94
2021/01/07 00:36:00;;;;;;;;;;;0.50;99.90;;;;;;12915466;22;20019;-93
2021/01/07 00:41:02;;;;;;;11.60;7.20;;;0.60;99.90;;;;;;12913557;22;19915;-94
2021/01/07 00:46:04;;;;;;;11.50;7.60;;;0.50;99.90;;;;;;12937972;22;20024;-94
2021/01/07 00:51:07;;;;;;;15.30;7.68;;;0.50;99.90;;;;;;12963882;22;20020;-94
2021/01/07 00:56:08;;;;;;;12.55;7.13;;;0.50;99.90;;;;;;12964303;22;20445;-95
2021/01/07 01:01:10;;;;;;;6.97;5.28;;;0.50;99.90;;;;;;12912984;22;20043;-94
2021/01/07 01:06:12;;;;;;;10.32;7.45;;;0.40;99.90;;;;;;12892515;22;20445;-94
2021/01/07 01:11:13;;;;;;;8.98;6.30;;;0.50;99.90;;;;;;12967966;22;20024;-95
2021/01/07 01:16:15;;;;;;;;;;;0.50;99.90;;;;;;12918590;22;20027;-95
2021/01/07 01:21:16;;;;;;;10.70;7.20;;;0.60;99.90;;;;;;12967901;22;19915;-95
2021/01/07 01:26:18;;;;;;;10.02;6.50;;;0.70;99.90;;;;;;12967503;22;20042;-95
2021/01/07 01:31:20;;;;;;;7.63;6.47;;;0.80;99.90;;;;;;12943162;22;20502;-95
2021/01/07 01:36:26;;;;;;;9.18;6.53;;;0.80;99.90;;;;;;12916584;22;20472;-95
2021/01/07 01:41:28;;;;;;;8.05;5.75;;;0.80;99.90;;;;;;12944898;22;20023;-94
2021/01/07 01:46:29;;;;;;;;;;;0.90;99.90;;;;;;12969886;22;20026;-94
2021/01/07 01:51:35;;;;;;;10.95;6.53;;;1.00;99.90;;;;;;12969324;22;19961;-94
2021/01/07 01:56:37;;;;;;;8.77;5.85;;;1.00;99.90;;;;;;12944681;22;20040;-94
2021/01/07 02:01:40;;;;;;;7.63;5.75;;;1.00;99.90;;;;;;12943102;22;20085;-95
2021/01/07 02:06:44;;;;;;;8.35;7.20;;;1.10;99.90;;;;;;12941673;22;20016;-94
2021/01/07 02:11:46;;;;;;;12.52;6.72;;;1.10;99.90;;;;;;12940938;22;20016;-95
2021/01/07 02:16:47;;;;;;;10.20;7.60;;;1.10;99.90;;;;;;12966990;22;20024;-93
2021/01/07 02:21:52;;;;;;;10.77;7.07;;;1.10;99.90;;;;;;12965918;22;20023;-95
2021/01/07 02:26:59;;;;;;;13.15;7.43;;;1.10;99.90;;;;;;12943586;22;20038;-94
2021/01/07 02:32:01;;;;;;;10.70;8.43;;;1.10;99.90;;;;;;12940714;22;20019;-95
2021/01/07 02:37:04;;;;;;;9.38;7.05;;;1.10;99.90;;;;;;12942201;22;20054;-94
2021/01/07 02:42:06;;;;;;;8.80;6.72;;;1.10;99.90;;;;;;12941291;22;20023;-94
2021/01/07 02:47:07;;;;;;;15.90;11.60;;;1.10;99.90;;;;;;12993017;22;20023;-93
2021/01/07 02:52:09;;;;;;;14.68;10.38;;;1.10;99.90;;;;;;12940610;22;20046;-94
2021/01/07 02:57:10;;;;;;;18.40;11.60;;;1.10;99.90;;;;;;12917884;22;20020;-94
2021/01/07 03:02:14;;;;;;;16.73;10.63;;;1.10;99.90;;;;;;12893072;22;20026;-94
2021/01/07 03:07:16;;;;;;;17.58;11.48;;;1.10;99.90;;;;;;12940739;22;20031;-93
2021/01/07 03:12:18;;;;;;;20.08;13.75;;;1.10;99.90;;;;;;12939849;22;20026;-94
2021/01/07 03:17:20;;;;;;;15.40;10.38;;;1.10;99.90;;;;;;12941064;22;20024;-93
2021/01/07 03:22:21;;;;;;;21.48;14.30;;;1.10;99.90;;;;;;12916094;22;20043;-93
2021/01/07 03:27:23;;;;;;;;;;;1.10;99.90;;;;;;12940681;22;20016;-94
2021/01/07 03:32:24;;;;;;;20.80;13.23;;;1.10;99.90;;;;;;12941759;22;19926;-93
2021/01/07 03:37:26;;;;;;;19.10;12.85;;;1.10;99.90;;;;;;12926508;22;20020;-94
2021/01/07 03:42:27;;;;;;;13.65;10.18;;;1.10;99.90;;;;;;12959321;22;20039;-94
2021/01/07 06:58:29;;;;;;;23.77;14.07;;;1.30;99.90;;;;;;12921857;22;19916;-93
2021/01/07 07:03:32;;;;;;;30.73;17.45;;;1.30;99.90;;;;;;12876377;23;20479;-93
2021/01/07 07:08:34;;;;;;;27.63;15.45;;;1.30;99.90;;;;;;12877692;23;20020;-93
2021/01/07 07:13:42;;;;;;;32.03;17.75;;;1.30;99.90;;;;;;12877333;23;20030;-93
2021/01/07 07:18:43;;;;;;;24.40;13.82;;;1.30;99.90;;;;;;12878036;23;20067;-93
2021/01/07 07:23:46;;;;;;;23.73;13.85;;;1.40;99.90;;;;;;12851867;23;20071;-93
2021/01/07 07:28:50;;;;;;;20.05;13.18;;;1.40;99.90;;;;;;12876898;23;20043;-93
2021/01/07 07:34:01;;;;;;;28.13;14.13;;;1.40;99.90;;;;;;12878700;23;20027;-93
2021/01/07 07:39:05;;;;;;;26.00;15.52;;;1.40;99.90;;;;;;12877796;23;20074;-92
2021/01/07 07:44:07;;;;;;;19.58;12.00;;;1.40;99.90;;;;;;12901709;23;20016;-92
2021/01/07 07:49:10;;;;;;;23.63;13.43;;;1.40;99.90;;;;;;12876408;23;20075;-93
2021/01/07 07:54:12;;;;;;;28.52;15.88;;;1.40;99.90;;;;;;12851761;23;20030;-93
2021/01/07 07:59:14;;;;;;;21.17;13.90;;;1.50;99.90;;;;;;12875706;23;20020;-93
2021/01/07 08:04:16;;;;;;;;;;;1.50;99.90;;;;;;12876644;23;20342;-93
2021/01/07 08:09:21;;;;;;;19.58;12.93;;;1.50;99.90;;;;;;12879384;23;19919;-93
2021/01/07 08:14:28;;;;;;;31.55;16.63;;;1.50;99.90;;;;;;12876100;23;20039;-93
2021/01/07 08:19:34;;;;;;;29.55;16.02;;;1.60;99.90;;;;;;12876628;23;20810;-93
2021/01/07 08:24:41;;;;;;;23.85;14.48;;;1.50;99.90;;;;;;12876360;23;20090;-93
2021/01/07 08:29:51;;;;;;;25.73;15.00;;;1.60;99.90;;;;;;12852251;23;20016;-93
2021/01/07 08:34:53;;;;;;;21.60;13.40;;;1.70;99.90;;;;;;12876236;23;20353;-92
2021/01/07 08:40:06;;;;;;;25.42;15.15;;;1.70;99.90;;;;;;12875691;23;20024;-90
2021/01/07 08:45:09;;;;;;;23.35;15.77;;;1.70;99.90;;;;;;12876560;23;20026;-90
2021/01/07 08:50:14;;;;;;;25.42;14.57;;;1.80;99.90;;;;;;12852303;23;20040;-90
2021/01/07 08:55:17;;;;;;;26.98;15.32;;;1.80;99.90;;;;;;12877659;23;20461;-90
2021/01/07 09:00:20;;;;;;;27.52;15.73;;;1.90;99.90;;;;;;12850846;23;20035;-91
2021/01/07 09:05:29;;;;;;;22.75;14.48;;;1.90;99.90;;;;;;12877753;23;20071;-90
2021/01/07 09:10:30;;;;;;;21.90;14.25;;;2.00;99.90;;;;;;12850577;23;20020;-90
2021/01/07 09:15:32;;;;;;;19.05;13.02;;;1.90;99.90;;;;;;12850521;23;20024;-89
2021/01/07 09:20:34;;;;;;;18.77;12.60;;;2.00;99.90;;;;;;12849658;23;20031;-90
2021/01/07 09:25:37;;;;;;;23.17;13.95;;;2.00;99.90;;;;;;12876600;23;20016;-90
2021/01/07 09:30:38;;;;;;;23.90;13.70;;;2.10;99.90;;;;;;12878889;23;20020;-90
2021/01/07 09:35:40;;;;;;;16.73;11.00;;;2.10;99.90;;;;;;12878186;23;20070;-90
2021/01/07 09:40:42;;;;;;;14.80;10.55;;;2.10;99.90;;;;;;12854144;23;20091;-90
2021/01/07 09:45:44;;;;;;;17.48;11.00;;;2.20;99.90;;;;;;12878119;23;20023;-90
2021/01/07 09:50:45;;;;;;;16.58;10.38;;;2.20;99.90;;;;;;12853048;23;20353;-90
2021/01/07 09:55:50;;;;;;;13.30;9.40;;;2.20;99.90;;;;;;12852935;23;20103;-91
2021/01/07 10:00:52;;;;;;;16.67;9.50;;;2.30;99.90;;;;;;12902873;23;20024;-91
2021/01/07 10:05:53;;;;;;;13.88;9.50;;;2.40;99.90;;;;;;12829969;23;20032;-90
2021/01/07 10:10:55;;;;;;;14.98;10.57;;;2.40;99.90;;;;;;12854025;23;20016;-91
2021/01/07 10:23:06;;;;;;;13.23;10.13;;;2.50;99.90;;;;;;12737848;23;20017;-91
2021/01/07 10:28:13;;;;;;;12.13;9.10;;;2.60;99.90;;;;;;12894874;23;20020;-90
2021/01/07 10:33:38;;;;;;;14.45;9.95;;;2.60;99.90;;;;;;12857251;23;20020;-89
2021/01/07 10:38:48;;;;;;;11.10;8.23;;;2.60;99.90;;;;;;12859933;23;20027;-91
2021/01/07 10:43:50;;;;;;;9.32;7.97;;;2.60;99.90;;;;;;12877788;23;20079;-91
2021/01/07 10:48:54;;;;;;;12.23;8.50;;;2.60;99.90;;;;;;12876741;23;20071;-91
2021/01/07 10:55:09;;;;;;;9.05;7.32;;;2.60;99.90;;;;;;12853575;23;20024;-91
2021/01/07 11:00:29;;;;;;;9.60;8.13;;;2.70;99.90;;;;;;12836487;23;20024;-91
2021/01/07 11:05:39;;;;;;;10.52;8.40;;;2.70;99.90;;;;;;12901521;23;20099;-91
2021/01/07 11:10:54;;;;;;;8.02;7.22;;;2.80;99.90;;;;;;12877216;23;20488;-92
2021/01/07 12:47:03;;;;;;;;;;;3.30;99.90;;;;;;12858204;23;20021;-94
2021/01/07 12:52:06;;;;;;;4.15;3.85;;;3.30;99.90;;;;;;12788983;23;20368;-94
2021/01/07 12:57:22;;;;;;;5.00;4.50;;;3.30;99.90;;;;;;12814713;23;20024;-95
2021/01/07 13:02:57;;;;;;;5.55;4.65;;;3.30;99.90;;;;;;12793855;23;20341;-96
2021/01/07 13:08:04;;;;;;;5.13;4.63;;;3.30;99.90;;;;;;12867266;23;20446;-95
2021/01/07 13:13:06;;;;;;;5.88;5.00;;;3.40;99.90;;;;;;12793517;23;20027;-95
2021/01/07 13:18:09;;;;;;;6.43;3.85;;;3.30;99.90;;;;;;12792715;23;20466;-92
2021/01/07 13:23:12;;;;;;;5.95;3.90;;;3.40;99.90;;;;;;12769601;23;20020;-93
2021/01/07 13:28:13;;;;;;;4.38;2.97;;;3.40;99.90;;;;;;12818303;23;20039;-93
2021/01/07 13:33:16;;;;;;;6.95;4.05;;;3.40;99.90;;;;;;12792258;23;20465;-92
2021/01/07 13:38:31;;;;;;;5.90;3.13;;;3.40;99.90;;;;;;12819047;23;20075;-93
2021/01/07 13:43:34;;;;;;;13.07;3.30;;;3.40;99.90;;;;;;12822277;23;20080;-93
2021/01/07 13:48:39;;;;;;;8.35;4.50;;;3.40;99.90;;;;;;12778912;23;20020;-93
2021/01/07 13:53:42;;;;;;;6.57;4.22;;;3.40;99.90;;;;;;12821570;23;20075;-93
2021/01/07 13:58:44;;;;;;;6.43;5.10;;;3.50;99.90;;;;;;12817915;23;20024;-92
2021/01/07 14:03:46;;;;;;;8.18;5.07;;;3.40;99.90;;;;;;12794246;23;20071;-92
2021/01/07 14:09:21;;;;;;;9.70;6.07;;;3.40;99.90;;;;;;12817523;23;20020;-93
2021/01/07 14:14:23;;;;;;;6.82;4.88;;;3.40;99.90;;;;;;12818508;23;20028;-92
2021/01/07 14:19:24;;;;;;;;;;;3.40;99.90;;;;;;12792725;23;20398;-94
2021/01/07 14:24:27;;;;;;;8.43;5.22;;;3.40;99.90;;;;;;12816142;23;19939;-92
2021/01/07 14:29:33;;;;;;;12.75;5.18;;;3.40;99.90;;;;;;12816003;23;20096;-93
2021/01/07 14:35:01;;;;;;;7.45;4.95;;;3.40;99.90;;;;;;12816813;23;20031;-93
2021/01/07 14:45:52;;;;;;;10.15;5.30;;;3.40;99.90;;;;;;12836673;23;20021;-94
2021/01/07 14:50:58;;;;;;;8.30;4.72;;;3.30;99.90;;;;;;12817993;23;20105;-93
2021/01/07 14:56:16;;;;;;;9.95;5.07;;;3.30;99.90;;;;;;12841906;23;20052;-92
2021/01/07 15:01:48;;;;;;;4.63;3.92;;;3.30;99.90;;;;;;12845044;23;20028;-94
2021/01/07 15:06:57;;;;;;;7.10;3.58;;;3.30;99.90;;;;;;12815872;23;20020;-94
2021/01/07 15:12:27;;;;;;;5.18;3.88;;;3.30;99.90;;;;;;12825052;23;20021;-94
2021/01/07 15:18:01;;;;;;;7.88;4.63;;;3.30;99.90;;;;;;12818152;23;20024;-94
2021/01/07 15:24:11;;;;;;;6.57;4.47;;;3.20;99.90;;;;;;12816487;23;20040;-92
2021/01/07 15:29:44;;;;;;;11.40;5.82;;;3.10;99.90;;;;;;12864705;23;20099;-93
2021/01/07 15:35:15;;;;;;;5.93;3.92;;;3.10;99.90;;;;;;12839588;23;20021;-94
2021/01/07 15:41:02;;;;;;;8.68;5.55;;;3.00;99.90;;;;;;12830755;23;20032;-94
2021/01/07 15:46:43;;;;;;;9.80;4.63;;;2.90;99.90;;;;;;12882703;22;20032;-93
2021/01/07 15:52:53;;;;;;;11.20;5.78;;;2.90;99.90;;;;;;12842704;23;20334;-93
2021/01/07 15:59:03;;;;;;;5.90;3.17;;;2.90;99.90;;;;;;12631022;23;20018;-93
2021/01/07 16:04:18;;;;;;;11.18;4.53;;;2.80;99.90;;;;;;12629415;23;20025;-94
2021/01/07 16:09:28;;;;;;;6.35;4.80;;;2.80;99.90;;;;;;12653368;23;20081;-94
2021/01/07 16:14:33;;;;;;;9.98;5.30;;;2.70;99.90;;;;;;12734479;23;20338;-94
2021/01/07 16:19:35;;;;;;;7.30;4.55;;;2.70;99.90;;;;;;12815451;23;20028;-96
2021/01/07 16:24:46;;;;;;;;;;;2.80;99.90;;;;;;12814701;23;20020;-95
2021/01/07 16:29:58;;;;;;;5.97;4.90;;;2.80;99.90;;;;;;12813903;23;20297;-95
2021/01/07 16:35:01;;;;;;;;;;;2.80;99.90;;;;;;12816328;23;20020;-95
2021/01/07 16:40:09;;;;;;;9.65;5.60;;;2.80;99.90;;;;;;12814344;23;20272;-95
2021/01/07 16:45:16;;;;;;;;;;;2.80;99.90;;;;;;12792938;23;20016;-95
2021/01/07 16:50:18;;;;;;;18.75;9.77;;;2.80;99.90;;;;;;12814726;23;20233;-95
2021/01/07 16:55:22;;;;;;;;;;;2.80;99.90;;;;;;12791677;23;20091;-94
2021/01/07 17:00:23;;;;;;;7.43;5.35;;;2.80;99.90;;;;;;12790415;23;19916;-94
2021/01/07 17:05:25;;;;;;;;;;;2.80;99.90;;;;;;12814054;23;20048;-94
2021/01/07 17:10:27;;;;;;;6.75;5.20;;;2.80;99.90;;;;;;12814017;23;19979;-94
